CheckWX is a tool to help pilots better visualize weather data.  It is not intended as a substitute for an official pre-flight weather briefing.

13:30:56 UTC

KVLD METAR
Valdosta Regional Airport
Valdosta, Georgia, USA
Current

38 mins ago

KVLD 071253Z 00000KT 10SM OVC034 12/08 A3019 RMK AO2 RAB14E31 SLP233 P0000 T01220083
Observed
Dec-7 @ 12:53 UTC
Visibility
10 SM
Flight Rules
VFR
Cloud Levels
  • Overcast at 3,400' AGL
Temperature
12°C / 54°F
Dewpoint
C / 46°F
Humidity
77%
Altimeter
30.19" Hg
Pressure
1022.32 hPa
Current Rain
0.01"
Previous

2 hours ago

KVLD 071153Z 00000KT 10SM SCT031 BKN043 OVC049 12/08 A3018 RMK AO2 SLP229 60002 70002 T01170083 10122 20089 53010
Observed
Dec-7 @ 11:53 UTC
Visibility
10 SM
Flight Rules
VFR
Cloud Levels
  • Scattered at 3,100' AGL
  • Broken at 4,300' AGL
  • Overcast at 4,900' AGL
Temperature
12°C / 54°F
Dewpoint
C / 46°F
Humidity
77%
Altimeter
30.18" Hg
Pressure
1022.02 hPa
24 Hour Rain
0.02"
Previous

3 hours ago

KVLD 071053Z AUTO 00000KT 10SM BKN032 OVC043 11/09 A3017 RMK AO2 SLP224 T01110089
Observed
Dec-7 @ 10:53 UTC
Visibility
10 SM
Flight Rules
VFR
Cloud Levels
  • Broken at 3,200' AGL
  • Overcast at 4,300' AGL
Temperature
11°C / 52°F
Dewpoint
C / 48°F
Humidity
88%
Altimeter
30.17" Hg
Pressure
1021.72 hPa